シンガポール/チャンギ の空港の天気 - METARとTAF

シンガポール・チャンギ国際空港 ( WSSS / SIN ) - シンガポール Changi
飛行場実況気象(Metar)
観測時間02/20 23:00 SGT (02/20 15:00 UTC)
風向・風速北東 3m/s
視程10km以上
天気現象
少しの雲 雲底高度 550m
全天の8割程度の雲 雲底高度 10670m
気温27℃
湿度89%
気圧1010hPa
METARWSSS 201500Z 04006KT 350V070 9999 FEW018 BKN350 27/25 Q1010 NOSIG
過去の天気等 Google飛行場航空写真 Wunderground天気予報

過去48時間のMETAR

飛行場予報(TAF)
発表時間: 2/20 19:00 SGT (2/20 11:00 UTC)
予報対象時間: 20日20時 SGT ~ 22日2時 SGT
風向・風速北北東 5m/s
視程10km以上
少しの積乱雲 雲底高度 550m
全天の4割程度の雲 雲底高度 610m
21日13時 SGT ~ 21日16時 SGT に一時的に
視程3,000m
天気現象雷雨
少しの積乱雲 雲底高度 370m
全天の8割程度の雲 雲底高度 460m
TAF WSSS 201100Z 2012/2118 03009KT 9999 FEW018CB SCT020
TEMPO 2105/2108 3000 TSRA FEW012CB BKN015